Time;durP1;ratioP1;P1;durP2;ratioP2;P2;SDS_P1;SDS_P2;PMS_P1;PMS_P2;Temp;Humidity;BMP_temperature;BMP_pressure;BME280_temperature;BME280_humidity;BME280_pressure;Samples;Min_cycle;Max_cycle;Signal;HPM_P1;HPM_P2
2023/07/10 00:00:37;;;;;;;;;45.75;33.00;;;;;25.03;43.44;101587.28;5037419;28;45612;-74
2023/07/10 00:03:08;;;;;;;;;52.25;39.50;;;;;24.99;43.63;101591.00;5035242;28;45458;-73
2023/07/10 00:05:33;;;;;;;;;35.25;29.75;;;;;25.09;43.76;101613.59;5020209;28;45518;-74
2023/07/10 00:08:00;;;;;;;;;35.50;26.75;;;;;25.10;44.02;101612.69;5036811;28;45310;-72
2023/07/10 00:10:26;;;;;;;;;25.00;24.00;;;;;25.06;44.31;101611.81;5035262;28;45464;-74
2023/07/10 00:12:51;;;;;;;;;24.67;22.00;;;;;24.99;44.13;101605.56;5043283;28;45657;-74
2023/07/10 00:15:20;;;;;;;;;24.33;21.33;;;;;25.06;43.55;101617.28;5040443;28;45460;-73
2023/07/10 00:17:51;;;;;;;;;21.33;18.67;;;;;25.08;44.01;101619.97;5033981;28;45551;-73
2023/07/10 00:20:24;;;;;;;;;14.00;13.33;;;;;25.08;44.31;101622.72;5039204;28;45362;-74
2023/07/10 00:22:49;;;;;;;;;17.33;11.00;;;;;25.07;43.79;101624.56;5037957;28;45447;-73
2023/07/10 00:25:15;;;;;;;;;9.33;7.33;;;;;24.98;43.38;101624.75;5030327;28;45386;-73
2023/07/10 00:27:45;;;;;;;;;10.67;8.67;;;;;24.92;43.62;101609.38;5035169;28;45502;-74
2023/07/10 00:30:19;;;;;;;;;9.67;6.67;;;;;24.87;43.37;101605.81;5034742;28;45948;-74
2023/07/10 00:32:46;;;;;;;;;5.00;5.00;;;;;24.96;43.11;101635.72;5036915;28;46395;-74
2023/07/10 00:35:16;;;;;;;;;5.00;3.67;;;;;24.95;43.04;101622.09;5044414;28;45397;-75
2023/07/10 00:37:49;;;;;;;;;8.33;5.00;;;;;24.90;43.14;101616.69;5049050;28;45604;-74
2023/07/10 00:40:20;;;;;;;;;3.00;3.00;;;;;24.56;43.36;101568.13;5039780;28;45518;-73
2023/07/10 00:42:52;;;;;;;;;6.33;5.00;;;;;24.92;43.37;101624.88;5035872;28;46244;-74
2023/07/10 00:45:19;;;;;;;;;4.00;4.00;;;;;24.91;43.62;101623.06;5034518;28;45388;-74
2023/07/10 00:48:00;;;;;;;;;6.67;5.00;;;;;24.88;43.70;101626.78;5023025;28;45342;-74
2023/07/10 00:50:37;;;;;;;;;4.33;4.33;;;;;24.87;43.63;101618.59;5036475;28;45505;-73
2023/07/10 00:53:12;;;;;;;;;4.67;4.67;;;;;24.89;44.04;101631.28;5033594;28;46469;-74
2023/07/10 00:55:39;;;;;;;;;7.33;6.33;;;;;24.89;43.96;101624.94;5034637;28;45707;-75
2023/07/10 00:58:08;;;;;;;;;4.00;4.00;;;;;24.89;44.36;101627.66;5034268;28;45348;-74
2023/07/10 01:00:34;;;;;;;;;7.00;5.00;;;;;24.58;43.90;101565.38;5034324;28;45382;-74
2023/07/10 01:02:59;;;;;;;;;5.67;5.67;;;;;24.83;43.82;101613.19;5035280;28;45611;-74
2023/07/10 01:05:31;;;;;;;;;3.33;3.33;;;;;24.86;43.94;101614.06;5037627;28;45342;-74
2023/07/10 01:07:59;;;;;;;;;5.00;5.00;;;;;24.83;44.31;101607.72;5039100;28;45285;-74
2023/07/10 01:10:24;;;;;;;;;3.33;3.00;;;;;24.80;44.13;101601.41;5041964;28;45349;-74
2023/07/10 01:12:51;;;;;;;;;5.00;5.00;;;;;24.83;44.20;101610.44;5035852;28;46428;-74
2023/07/10 01:15:17;;;;;;;;;3.67;3.67;;;;;24.81;43.90;101600.47;5037172;28;45499;-74
2023/07/10 01:17:43;;;;;;;;;7.00;4.33;;;;;24.81;44.21;101617.78;5039051;28;45506;-74
2023/07/10 01:20:26;;;;;;;;;3.67;3.33;;;;;24.77;43.92;101616.03;5019742;28;45579;-74
2023/07/10 01:22:52;;;;;;;;;6.33;3.33;;;;;24.74;44.15;101613.34;5041140;28;46169;-73
2023/07/10 01:25:18;;;;;;;;;3.00;3.00;;;;;24.68;43.92;101598.91;5045081;28;45508;-73
2023/07/10 01:27:44;;;;;;;;;4.33;4.00;;;;;24.69;44.28;101609.81;5043489;28;45235;-73
2023/07/10 01:30:37;;;;;;;;;4.33;4.00;;;;;24.72;44.61;101608.84;5044984;28;45480;-74
2023/07/10 01:33:26;;;;;;;;;3.33;3.33;;;;;24.70;44.54;101618.91;5037776;28;46897;-74
2023/07/10 01:35:54;;;;;;;;;3.33;3.33;;;;;24.69;44.35;101618.00;5037472;28;45509;-73
2023/07/10 01:38:26;;;;;;;;;2.67;2.67;;;;;24.60;44.38;101619.09;5037447;28;45422;-74
2023/07/10 01:40:54;;;;;;;;;4.67;2.33;;;;;24.64;45.03;101625.38;5038805;28;45543;-74
2023/07/10 01:43:20;;;;;;;;;8.33;4.33;;;;;24.58;44.81;101617.28;5045860;28;45942;-74
2023/07/10 01:45:47;;;;;;;;;8.00;5.00;;;;;24.62;44.98;101621.78;5037183;28;45451;-73
2023/07/10 01:48:16;;;;;;;;;5.33;4.33;;;;;24.62;45.08;101630.00;5037326;28;45390;-74
2023/07/10 01:50:42;;;;;;;;;6.33;4.00;;;;;24.50;45.19;101611.03;5038200;28;45487;-75
2023/07/10 01:53:09;;;;;;;;;3.00;3.00;;;;;24.57;45.15;101626.44;5053629;28;46105;-72
2023/07/10 01:55:43;;;;;;;;;6.00;4.67;;;;;24.50;45.18;101616.50;5039627;28;45557;-73
2023/07/10 01:58:12;;;;;;;;;5.00;4.00;;;;;24.42;45.45;101605.72;5019863;28;45430;-74
2023/07/10 02:00:39;;;;;;;;;6.33;6.33;;;;;24.55;45.75;101633.69;5043870;28;45476;-74
2023/07/10 02:03:05;;;;;;;;;5.33;4.00;;;;;24.55;45.45;101631.94;5036882;28;45519;-72
2023/07/10 02:05:30;;;;;;;;;6.67;5.67;;;;;24.54;45.61;101621.88;5037681;28;45481;-74
2023/07/10 02:07:56;;;;;;;;;3.67;3.67;;;;;24.54;45.75;101626.47;5045104;28;45565;-74
2023/07/10 02:10:21;;;;;;;;;9.33;8.33;;;;;24.49;46.16;101620.19;5045666;28;45523;-73
2023/07/10 02:12:46;;;;;;;;;6.00;6.00;;;;;24.48;46.25;101619.25;5038021;28;46236;-74
2023/07/10 02:15:12;;;;;;;;;6.00;6.00;;;;;24.42;45.94;101609.34;5036132;28;45387;-73
2023/07/10 02:17:38;;;;;;;;;8.33;8.00;;;;;24.51;46.65;101626.50;5040494;28;45323;-74
2023/07/10 02:20:05;;;;;;;;;5.00;5.00;;;;;24.46;46.63;101627.47;5037734;28;45476;-74
2023/07/10 02:22:31;;;;;;;;;4.33;4.00;;;;;24.47;46.84;101621.09;5019099;28;47887;-74
2023/07/10 02:24:56;;;;;;;;;8.33;5.67;;;;;24.51;46.40;101629.25;5036854;28;45369;-74
2023/07/10 02:27:22;;;;;;;;;6.33;6.00;;;;;24.43;46.30;101627.53;5048604;28;45381;-73
2023/07/10 02:29:47;;;;;;;;;6.33;4.67;;;;;24.43;46.69;101630.25;5055700;28;45302;-73
2023/07/10 02:32:13;;;;;;;;;5.33;5.33;;;;;24.34;46.76;101616.78;5025022;28;46115;-74
2023/07/10 02:34:38;;;;;;;;;6.33;6.33;;;;;24.42;46.94;101638.50;5017697;28;45348;-73
2023/07/10 02:37:04;;;;;;;;;4.67;4.67;;;;;24.34;46.64;101621.34;5036455;28;45289;-74
2023/07/10 02:39:30;;;;;;;;;8.00;6.67;;;;;24.38;47.35;101629.44;5036556;28;45305;-74
2023/07/10 02:41:55;;;;;;;;;5.00;5.00;;;;;24.38;46.98;101634.00;5036011;28;45339;-73
2023/07/10 02:44:20;;;;;;;;;10.00;7.00;;;;;24.36;47.05;101635.88;5035878;28;45455;-73
2023/07/10 02:46:46;;;;;;;;;7.00;6.67;;;;;24.36;47.23;101641.34;5037795;28;45412;-74
2023/07/10 02:49:12;;;;;;;;;5.00;5.00;;;;;24.33;47.27;101635.91;5038553;28;45369;-75
2023/07/10 02:51:37;;;;;;;;;8.00;6.00;;;;;24.21;47.05;101617.91;5036068;28;45453;-73
2023/07/10 02:54:10;;;;;;;;;6.67;6.33;;;;;24.27;47.50;101629.63;5037276;28;45541;-74
2023/07/10 02:56:36;;;;;;;;;6.67;5.00;;;;;24.31;47.45;101644.13;5045742;28;45487;-73
2023/07/10 02:59:01;;;;;;;;;5.67;5.67;;;;;24.25;47.28;101634.22;5044390;28;45507;-73
2023/07/10 03:01:26;;;;;;;;;7.33;4.67;;;;;24.22;46.91;101639.72;5026641;28;47123;-73
2023/07/10 03:03:52;;;;;;;;;4.67;4.00;;;;;24.24;47.45;101636.97;5038514;28;45325;-74
2023/07/10 03:06:17;;;;;;;;;19.50;19.50;;;;;24.23;47.69;101638.78;5036445;28;45456;-74
2023/07/10 03:08:43;;;;;;;;;6.67;6.67;;;;;24.26;47.84;101652.41;5037339;28;45287;-74
2023/07/10 03:11:11;;;;;;;;;7.33;5.67;;;;;24.26;47.54;101656.97;5036505;28;45309;-73
2023/07/10 03:13:37;;;;;;;;;46.25;37.25;;;;;24.18;47.50;101639.81;5034122;28;45911;-73
2023/07/10 03:16:08;;;;;;;;;12.67;12.67;;;;;24.24;47.78;101648.78;5036075;28;45745;-74
2023/07/10 03:18:34;;;;;;;;;13.00;7.33;;;;;24.24;47.74;101658.81;5035498;28;45463;-74
2023/07/10 03:20:59;;;;;;;;;8.33;7.33;;;;;24.25;48.14;101657.88;5018104;28;46744;-75
2023/07/10 03:23:25;;;;;;;;;4.33;4.33;;;;;24.24;48.09;101658.81;5017974;28;45447;-74
2023/07/10 03:25:51;;;;;;;;;6.67;6.00;;;;;24.22;48.61;101653.38;5041359;28;45377;-74
2023/07/10 03:28:17;;;;;;;;;3.67;2.33;;;;;24.17;48.51;101651.63;5036233;28;45413;-72
2023/07/10 03:30:42;;;;;;;;;5.00;5.00;;;;;23.50;48.44;101539.81;5017144;28;46215;-74
2023/07/10 03:33:12;;;;;;;;;8.00;4.00;;;;;24.20;48.88;101663.41;5035153;28;45489;-73
2023/07/10 03:35:37;;;;;;;;;5.00;3.67;;;;;24.18;48.54;101664.38;5034310;28;45300;-74
2023/07/10 03:38:02;;;;;;;;;7.33;7.33;;;;;24.13;48.97;101663.53;5035902;28;45382;-74
2023/07/10 03:40:28;;;;;;;;;6.67;5.67;;;;;24.12;48.59;101668.06;5046012;28;46282;-74
2023/07/10 03:42:53;;;;;;;;;5.00;4.67;;;;;24.07;49.00;101656.34;5032789;28;45484;-74
2023/07/10 03:45:19;;;;;;;;;15.00;12.00;;;;;24.03;48.91;101649.13;5016958;28;45361;-74
2023/07/10 03:47:44;;;;;;;;;14.33;13.00;;;;;24.06;48.84;101658.16;5045078;28;45449;-73
2023/07/10 03:50:10;;;;;;;;;5.00;5.00;;;;;24.12;49.53;101664.47;5035207;28;45966;-73
2023/07/10 03:52:35;;;;;;;;;9.00;7.33;;;;;24.12;49.38;101667.19;5033460;28;45430;-73
2023/07/10 03:55:01;;;;;;;;;6.00;5.00;;;;;24.06;49.33;101665.47;5035893;28;45507;-74
2023/07/10 03:57:26;;;;;;;;;7.33;6.67;;;;;24.10;49.55;101673.59;5049928;28;45245;-73
2023/07/10 03:59:52;;;;;;;;;4.33;4.00;;;;;24.11;49.37;101669.03;5037178;28;48098;-74
2023/07/10 04:02:17;;;;;;;;;5.00;3.33;;;;;24.11;49.84;101682.69;5019150;28;45913;-75
2023/07/10 04:04:43;;;;;;;;;5.00;5.00;;;;;24.02;49.53;101666.41;5036527;28;45486;-73
2023/07/10 04:07:08;;;;;;;;;3.00;3.00;;;;;24.10;49.65;101672.66;5035325;28;45551;-73
2023/07/10 04:09:33;;;;;;;;;4.33;4.33;;;;;23.88;49.60;101642.06;5041882;28;46696;-74
2023/07/10 04:11:59;;;;;;;;;5.00;3.67;;;;;24.09;49.86;101692.72;5028617;28;45369;-73
2023/07/10 04:14:24;;;;;;;;;5.00;3.00;;;;;24.02;50.26;101675.53;5047717;28;45622;-74
2023/07/10 04:16:52;;;;;;;;;4.00;3.33;;;;;23.96;49.81;101672.00;5035744;28;45462;-74
2023/07/10 04:19:19;;;;;;;;;4.33;4.00;;;;;23.85;50.12;101667.56;5017377;28;47055;-76
2023/07/10 04:21:45;;;;;;;;;2.00;2.00;;;;;23.91;50.80;101699.34;5040847;28;45496;-77
2023/07/10 04:24:13;;;;;;;;;3.00;3.00;;;;;23.77;50.55;101684.94;5029396;28;45496;-76
2023/07/10 04:26:38;;;;;;;;;3.00;3.00;;;;;23.78;51.06;101697.69;5037285;28;45306;-75
2023/07/10 04:29:06;;;;;;;;;4.00;4.00;;;;;23.57;51.69;101677.94;5037030;28;45958;-74
2023/07/10 04:31:32;;;;;;;;;6.00;6.00;;;;;23.65;51.64;101691.47;5036881;28;45375;-74
2023/07/10 04:33:59;;;;;;;;;4.33;4.33;;;;;23.68;51.29;101707.81;5036006;28;45936;-76
2023/07/10 04:36:25;;;;;;;;;4.00;4.00;;;;;23.72;51.84;101710.44;5018239;28;45358;-76
2023/07/10 04:38:51;;;;;;;;;4.00;4.00;;;;;23.63;51.64;101694.22;5035343;28;46158;-76
2023/07/10 04:41:24;;;;;;;;;5.67;5.67;;;;;23.69;51.86;101705.06;5038721;28;45488;-74
2023/07/10 04:43:49;;;;;;;;;4.00;4.00;;;;;23.61;52.09;101703.34;5048126;28;45389;-73
2023/07/10 04:46:16;;;;;;;;;3.67;3.67;;;;;23.65;52.25;101718.75;5043551;28;45342;-75
2023/07/10 04:48:45;;;;;;;;;3.00;3.00;;;;;23.58;52.35;101711.56;5037922;28;46101;-75
2023/07/10 04:51:11;;;;;;;;;5.00;5.00;;;;;23.62;52.28;101714.22;5039064;28;45239;-75
2023/07/10 04:53:37;;;;;;;;;3.00;3.00;;;;;23.60;52.38;101720.66;5043544;28;45451;-76
2023/07/10 04:56:05;;;;;;;;;3.00;3.00;;;;;23.55;52.41;101716.13;5049723;28;45393;-76
2023/07/10 04:58:54;;;;;;;;;5.00;4.67;;;;;23.60;51.72;101715.19;5041045;28;46311;-75
2023/07/10 05:01:22;;;;;;;;;5.00;3.00;;;;;23.60;51.57;101717.91;5032608;28;45492;-76
2023/07/10 05:03:48;;;;;;;;;4.00;3.00;;;;;23.63;51.46;101728.78;5039918;28;45277;-76
2023/07/10 05:06:14;;;;;;;;;5.67;4.00;;;;;23.64;51.81;101716.94;5044366;28;45326;-76
2023/07/10 05:08:39;;;;;;;;;2.67;2.67;;;;;23.64;51.01;101719.66;5039698;28;45916;-76
2023/07/10 05:11:05;;;;;;;;;3.00;3.00;;;;;23.55;51.17;101701.59;5038543;28;45504;-76
2023/07/10 05:13:31;;;;;;;;;4.00;4.00;;;;;23.63;51.20;101718.78;5037871;28;45380;-74
2023/07/10 05:15:58;;;;;;;;;3.00;3.00;;;;;23.65;50.56;101721.50;5038555;28;45500;-75
2023/07/10 05:18:25;;;;;;;;;4.00;4.00;;;;;23.64;50.74;101706.94;5042754;28;46268;-75
2023/07/10 05:20:51;;;;;;;;;5.00;4.00;;;;;23.50;50.76;101684.38;5046590;28;45425;-76
2023/07/10 05:23:16;;;;;;;;;2.00;2.00;;;;;23.47;50.33;101693.50;5037922;28;45578;-76
2023/07/10 05:25:57;;;;;;;;;2.00;2.00;;;;;23.60;49.97;101716.09;5039538;28;45771;-74
2023/07/10 05:28:23;;;;;;;;;3.33;3.33;;;;;23.54;50.39;101707.97;5038228;28;45456;-76
2023/07/10 05:30:48;;;;;;;;;3.33;3.00;;;;;23.36;50.23;101679.09;5054107;28;45376;-75
2023/07/10 05:33:14;;;;;;;;;4.33;3.67;;;;;23.53;50.01;101708.91;5038270;28;45534;-76
2023/07/10 05:35:48;;;;;;;;;5.33;3.33;;;;;23.55;49.91;101716.13;5039799;28;45406;-77
2023/07/10 05:38:13;;;;;;;;;3.33;3.00;;;;;23.52;50.75;101707.97;5043266;28;45416;-78
2023/07/10 05:40:42;;;;;;;;;6.33;3.00;;;;;23.39;50.83;101687.22;5038491;28;45371;-78
2023/07/10 05:43:07;;;;;;;;;7.00;5.00;;;;;23.57;51.30;101709.75;5038351;28;45401;-76
2023/07/10 05:45:33;;;;;;;;;5.67;4.00;;;;;23.61;51.57;101723.34;5045657;28;45522;-75
2023/07/10 05:47:58;;;;;;;;;4.67;2.67;;;;;23.65;51.45;101711.47;5037922;28;45389;-75
2023/07/10 05:50:23;;;;;;;;;4.33;4.33;;;;;23.69;51.47;101720.50;5044373;28;45402;-76
2023/07/10 05:52:49;;;;;;;;;4.00;4.00;;;;;23.70;51.09;101717.75;5037997;28;45445;-74
2023/07/10 05:55:14;;;;;;;;;3.67;3.67;;;;;23.59;51.43;101699.72;5037894;28;45430;-75
2023/07/10 05:57:40;;;;;;;;;3.00;3.00;;;;;23.72;51.09;101723.19;5037188;28;47003;-74
2023/07/10 06:00:06;;;;;;;;;6.33;5.00;;;;;23.62;50.75;101713.34;5019396;28;45505;-73
2023/07/10 06:02:31;;;;;;;;;4.33;4.33;;;;;23.68;50.93;101716.00;5039888;28;45367;-74
2023/07/10 06:04:56;;;;;;;;;5.33;4.00;;;;;23.60;50.98;101704.28;5041649;28;45453;-74
2023/07/10 06:07:22;;;;;;;;;6.00;6.00;;;;;23.54;50.95;101686.13;5036977;28;45390;-75
2023/07/10 06:09:47;;;;;;;;;5.67;4.33;;;;;23.58;50.78;101703.38;5037190;28;45426;-75
2023/07/10 06:12:12;;;;;;;;;6.33;3.00;;;;;23.71;50.68;101719.59;5019489;28;45595;-75
2023/07/10 06:14:38;;;;;;;;;4.00;2.33;;;;;23.72;50.84;101715.91;5037111;28;45595;-75
2023/07/10 06:17:04;;;;;;;;;4.33;4.33;;;;;23.83;50.64;101718.56;5037653;28;45891;-75
2023/07/10 06:19:29;;;;;;;;;7.67;7.00;;;;;23.90;49.96;101725.72;5035366;28;45457;-75
2023/07/10 06:22:12;;;;;;;;;3.33;3.33;;;;;23.97;50.30;101728.38;5031010;28;45726;-76
2023/07/10 06:24:38;;;;;;;;;3.33;3.00;;;;;23.84;49.70;101692.16;5021335;28;45477;-75
2023/07/10 06:27:05;;;;;;;;;10.67;9.00;;;;;24.07;49.80;101714.59;5037316;28;45986;-76
2023/07/10 06:29:32;;;;;;;;;9.33;8.33;;;;;24.07;49.57;101710.94;5019634;28;45999;-76
2023/07/10 06:31:58;;;;;;;;;9.00;5.33;;;;;24.15;48.89;101716.28;5038955;28;45427;-76
2023/07/10 06:34:23;;;;;;;;;6.33;4.00;;;;;24.00;48.75;101685.56;5041590;28;45329;-75
2023/07/10 06:36:48;;;;;;;;;5.00;3.00;;;;;24.09;48.56;101709.09;5047588;28;46461;-74
2023/07/10 06:39:14;;;;;;;;;8.33;7.00;;;;;24.14;48.83;101718.13;5037185;28;45595;-76
2023/07/10 06:41:39;;;;;;;;;3.00;3.00;;;;;24.18;48.62;101718.97;5037645;28;45412;-76
2023/07/10 06:44:04;;;;;;;;;3.67;2.67;;;;;24.17;48.15;101717.16;5020488;28;45692;-75
2023/07/10 06:46:30;;;;;;;;;6.33;3.33;;;;;24.00;48.64;101693.75;5041884;28;45658;-75
2023/07/10 06:48:55;;;;;;;;;5.00;5.00;;;;;24.08;48.70;101685.44;5038450;28;45360;-76
2023/07/10 06:51:21;;;;;;;;;4.33;4.00;;;;;24.07;48.07;101684.56;5027011;28;45265;-75
2023/07/10 06:53:46;;;;;;;;;2.33;2.33;;;;;24.22;48.05;101712.53;5040279;28;45406;-75
2023/07/10 06:56:11;;;;;;;;;8.00;6.67;;;;;24.26;48.25;101712.47;5037128;28;45599;-76
2023/07/10 06:58:37;;;;;;;;;3.67;3.00;;;;;24.26;47.91;101714.31;5037054;28;45501;-76
2023/07/10 07:01:03;;;;;;;;;8.00;2.67;;;;;24.20;47.89;101687.09;5039663;28;45451;-76
2023/07/10 07:03:29;;;;;;;;;3.33;3.33;;;;;24.41;47.67;101713.16;5041575;28;45403;-75
2023/07/10 07:05:55;;;;;;;;;9.67;5.67;;;;;24.47;48.29;101713.97;5038133;28;48355;-75
2023/07/10 07:08:21;;;;;;;;;4.00;4.00;;;;;24.49;48.25;101715.78;5039882;28;45512;-75
2023/07/10 07:10:49;;;;;;;;;5.00;3.00;;;;;24.42;48.42;101691.28;5036017;28;46314;-75
2023/07/10 07:13:15;;;;;;;;;10.00;5.67;;;;;24.60;47.92;101717.44;5049386;28;45544;-75
2023/07/10 07:15:41;;;;;;;;;4.00;4.00;;;;;24.62;47.99;101723.78;5036794;28;46775;-76
2023/07/10 07:18:06;;;;;;;;;9.00;4.33;;;;;24.63;47.91;101714.66;5036895;28;45556;-75
2023/07/10 07:20:32;;;;;;;;;4.33;2.33;;;;;24.64;47.56;101715.56;5037386;28;45287;-75
2023/07/10 07:22:58;;;;;;;;;3.67;3.00;;;;;24.52;47.22;101686.59;5037578;28;45440;-75
2023/07/10 07:25:24;;;;;;;;;5.00;3.00;;;;;24.55;47.07;101692.03;5035312;28;46244;-76
2023/07/10 07:27:50;;;;;;;;;2.67;2.00;;;;;24.51;46.50;101682.03;5036272;28;45415;-75
2023/07/10 07:30:16;;;;;;;;;7.33;3.67;;;;;24.66;46.99;101705.50;5036560;28;45399;-75
2023/07/10 07:32:41;;;;;;;;;5.00;4.00;;;;;24.56;46.73;101698.41;5034245;28;45443;-76
2023/07/10 07:35:06;;;;;;;;;6.00;4.67;;;;;24.71;46.62;101719.97;5036255;28;62060;-74
2023/07/10 07:37:32;;;;;;;;;6.33;6.33;;;;;24.78;46.62;101712.56;5018182;28;45268;-76
2023/07/10 07:40:00;;;;;;;;;6.67;5.00;;;;;24.85;46.64;101714.28;5021965;28;45516;-76
2023/07/10 07:42:26;;;;;;;;;3.67;2.00;;;;;24.87;45.85;101720.63;5030123;28;45715;-76
2023/07/10 07:44:52;;;;;;;;;3.00;3.00;;;;;24.88;45.91;101718.78;5035542;28;45464;-76
2023/07/10 07:47:18;;;;;;;;;3.00;3.00;;;;;24.95;45.09;101706.84;5035795;28;45438;-75
2023/07/10 07:49:43;;;;;;;;;3.00;3.00;;;;;25.01;44.59;101707.63;5036306;28;45632;-75
2023/07/10 07:52:09;;;;;;;;;3.00;1.33;;;;;24.86;44.07;101686.00;5044539;28;45302;-75
2023/07/10 07:54:34;;;;;;;;;3.33;3.00;;;;;24.95;43.79;101685.84;5042219;28;45473;-76
2023/07/10 07:56:59;;;;;;;;;3.67;1.33;;;;;25.08;43.39;101700.22;5040626;28;45471;-74
2023/07/10 07:59:25;;;;;;;;;2.67;2.00;;;;;25.13;43.23;101705.59;5035505;28;45491;-75
2023/07/10 08:01:51;;;;;;;;;6.00;3.33;;;;;25.14;42.79;101690.97;5035770;28;45414;-74
2023/07/10 08:04:19;;;;;;;;;3.00;1.00;;;;;25.16;42.39;101694.56;5036187;28;46085;-74
2023/07/10 08:06:46;;;;;;;;;1.00;1.00;;;;;25.18;41.00;101685.41;5036125;28;45305;-73
2023/07/10 08:09:11;;;;;;;;;2.00;2.00;;;;;25.15;40.91;101665.44;5036102;28;45283;-75
2023/07/10 08:11:37;;;;;;;;;1.33;1.33;;;;;25.40;40.49;101681.41;5036612;28;45448;-72
2023/07/10 08:14:05;;;;;;;;;4.00;2.00;;;;;25.37;40.60;101671.41;5034701;28;46242;-72
2023/07/10 08:16:30;;;;;;;;;3.33;1.00;;;;;25.51;41.27;101687.56;5035066;28;45579;-72
2023/07/10 08:18:56;;;;;;;;;7.33;3.00;;;;;25.59;41.21;101677.34;5042874;28;45618;-72
2023/07/10 08:21:21;;;;;;;;;1.00;1.00;;;;;25.51;40.76;101658.34;5039242;28;45566;-71
2023/07/10 08:23:47;;;;;;;;;2.67;2.00;;;;;25.64;40.76;101652.59;5034155;28;46268;-72
2023/07/10 08:26:13;;;;;;;;;2.33;2.33;;;;;25.84;39.75;101683.16;5016485;28;45494;-72
2023/07/10 08:28:38;;;;;;;;;5.00;2.00;;;;;25.87;40.19;101676.72;5034105;28;45393;-70
2023/07/10 08:31:04;;;;;;;;;4.00;2.00;;;;;25.58;39.97;101607.13;5034554;28;45207;-73
2023/07/10 08:33:29;;;;;;;;;2.00;2.00;;;;;26.03;39.60;101688.25;5028677;28;45410;-72
2023/07/10 08:35:59;;;;;;;;;2.33;2.00;;;;;26.06;40.17;101686.34;5036684;28;45636;-71
2023/07/10 08:38:25;;;;;;;;;5.00;4.00;;;;;26.10;40.32;101689.91;5046114;28;45434;-73
2023/07/10 08:40:54;;;;;;;;;4.00;1.00;;;;;26.09;40.12;101674.44;5034993;28;45476;-71
2023/07/10 08:43:25;;;;;;;;;2.00;2.00;;;;;26.24;39.00;101684.13;5034556;28;45461;-73
2023/07/10 08:45:59;;;;;;;;;5.33;3.00;;;;;26.24;37.82;101671.31;5036016;28;45381;-71
2023/07/10 08:48:36;;;;;;;;;1.00;0.00;;;;;26.33;37.60;101678.41;5028405;28;46062;-72
2023/07/10 08:51:30;;;;;;;;;3.00;1.33;;;;;26.42;38.07;101682.78;5017091;28;45652;-72
2023/07/10 08:54:05;;;;;;;;;3.00;3.00;;;;;26.31;37.81;101666.59;5016305;28;47047;-74
2023/07/10 08:56:32;;;;;;;;;1.00;1.00;;;;;26.49;37.88;101684.41;5043024;28;45259;-72
2023/07/10 08:59:09;;;;;;;;;5.00;2.00;;;;;26.49;36.82;101667.97;5017648;28;45546;-71
2023/07/10 09:01:39;;;;;;;;;2.00;2.00;;;;;26.62;36.75;101679.53;5028547;28;45367;-72
2023/07/10 09:04:06;;;;;;;;;7.00;2.67;;;;;26.54;36.88;101657.78;5028774;28;45580;-73
2023/07/10 09:06:38;;;;;;;;;4.00;2.67;;;;;26.64;37.29;101674.94;5034367;28;45282;-72
2023/07/10 09:09:27;;;;;;;;;4.33;2.00;;;;;26.57;36.27;101660.44;5034396;28;45418;-72
2023/07/10 09:11:57;;;;;;;;;1.00;1.00;;;;;26.57;36.22;101640.38;5030377;28;46049;-73
2023/07/10 09:14:58;;;;;;;;;4.00;2.00;;;;;26.84;36.47;101679.88;5015414;28;47627;-72
2023/07/10 09:17:35;;;;;;;;;2.00;2.00;;;;;26.90;36.33;101676.09;4989030;28;45520;-73
2023/07/10 09:20:05;;;;;;;;;1.33;1.33;;;;;26.94;36.25;101662.25;5036613;28;45445;-74
2023/07/10 09:22:34;;;;;;;;;1.00;1.00;;;;;26.97;34.94;101669.47;5017185;28;45573;-70
2023/07/10 09:24:59;;;;;;;;;1.00;1.00;;;;;27.03;35.91;101683.94;5035318;28;46181;-71
2023/07/10 09:27:25;;;;;;;;;3.00;1.33;;;;;27.04;34.96;101673.84;5039461;28;45366;-72
2023/07/10 09:29:54;;;;;;;;;1.67;1.00;;;;;27.01;34.71;101658.41;5036456;28;45227;-71
2023/07/10 09:32:20;;;;;;;;;1.00;1.00;;;;;27.13;35.17;101669.97;5035807;28;45494;-70
2023/07/10 09:34:50;;;;;;;;;1.67;1.67;;;;;26.93;34.93;101627.53;5019203;28;48661;-72
2023/07/10 09:37:26;;;;;;;;;4.00;1.00;;;;;27.21;34.59;101678.88;5039211;28;45516;-72
2023/07/10 09:39:51;;;;;;;;;2.33;1.00;;;;;27.24;34.40;101676.06;5040549;28;45342;-74
2023/07/10 09:42:31;;;;;;;;;1.00;1.00;;;;;27.24;33.93;101669.66;5039331;28;45541;-72
2023/07/10 09:44:58;;;;;;;;;1.00;1.00;;;;;27.20;33.80;101646.91;5038763;28;46117;-72
2023/07/10 09:47:39;;;;;;;;;2.00;2.00;;;;;27.29;33.82;101656.69;5038670;28;45406;-74
2023/07/10 09:50:12;;;;;;;;;1.67;1.67;;;;;27.32;33.98;101654.81;5044754;28;45476;-74
2023/07/10 09:52:40;;;;;;;;;1.00;1.00;;;;;27.35;33.89;101662.94;5040447;28;45516;-73
2023/07/10 09:55:08;;;;;;;;;2.00;1.00;;;;;27.36;33.87;101659.25;5026926;28;48098;-73
2023/07/10 09:57:59;;;;;;;;;1.00;1.00;;;;;27.42;33.24;101662.75;5027784;28;45322;-76
2023/07/10 10:00:26;;;;;;;;;1.33;0.33;;;;;27.41;32.98;101670.09;5037205;28;45513;-72
2023/07/10 10:02:56;;;;;;;;;1.67;1.33;;;;;27.43;33.22;101672.81;5037409;28;45429;-73
2023/07/10 10:05:22;;;;;;;;;2.33;1.00;;;;;27.39;32.64;101661.91;5037206;28;45400;-75
2023/07/10 10:07:50;;;;;;;;;4.00;1.00;;;;;27.44;32.68;101675.50;5043351;28;45322;-73
2023/07/10 10:10:30;;;;;;;;;2.33;1.33;;;;;27.50;33.18;101675.31;5037221;28;45703;-75
2023/07/10 10:13:14;;;;;;;;;1.00;1.00;;;;;27.54;32.96;101667.91;5019393;28;45525;-72
2023/07/10 10:16:03;;;;;;;;;2.33;1.00;;;;;27.57;32.95;101659.59;5031598;28;45396;-73
2023/07/10 10:18:46;;;;;;;;;4.33;2.33;;;;;27.63;32.82;101661.22;5040768;28;45407;-72
2023/07/10 10:21:15;;;;;;;;;2.33;0.67;;;;;27.63;33.02;101662.13;5045414;28;45497;-73
2023/07/10 10:23:44;;;;;;;;;1.33;1.33;;;;;27.57;32.71;101645.84;5043549;28;45590;-75
2023/07/10 10:26:13;;;;;;;;;0.67;0.33;;;;;27.69;33.08;101663.78;5034411;28;47446;-73
2023/07/10 10:28:58;;;;;;;;;1.67;1.00;;;;;27.69;33.07;101659.19;5038122;28;45344;-74
2023/07/10 10:31:30;;;;;;;;;1.00;1.00;;;;;27.75;33.38;101655.34;5037030;28;45524;-74
2023/07/10 10:34:24;;;;;;;;;7.33;6.00;;;;;27.85;33.56;101636.72;5013470;28;45694;-73
2023/07/10 10:37:20;;;;;;;;;2.67;2.00;;;;;28.09;32.65;101651.56;5005352;28;47337;-74
2023/07/10 10:40:03;;;;;;;;;2.00;2.00;;;;;27.96;32.79;101622.72;5006651;28;45624;-75
2023/07/10 10:42:37;;;;;;;;;1.33;1.33;;;;;28.16;32.74;101647.66;5008584;28;45483;-75
2023/07/10 10:45:41;;;;;;;;;5.33;2.33;;;;;28.18;31.91;101642.13;5016347;28;45411;-73
2023/07/10 10:48:25;;;;;;;;;4.00;2.33;;;;;28.10;32.06;101654.28;5006338;28;46442;-72
2023/07/10 10:51:21;;;;;;;;;1.00;1.00;;;;;28.13;32.03;101651.44;5005031;28;45783;-74
2023/07/10 10:54:03;;;;;;;;;2.33;2.00;;;;;28.09;31.53;101646.09;5003700;28;45846;-74
2023/07/10 10:56:38;;;;;;;;;3.00;1.33;;;;;28.12;31.47;101643.25;5008999;28;45590;-74
2023/07/10 10:59:34;;;;;;;;;1.00;1.00;;;;;28.16;31.32;101650.41;5002368;28;45559;-73
2023/07/10 11:02:33;;;;;;;;;1.67;1.67;;;;;28.05;31.65;101620.56;5013445;28;45355;-74
2023/07/10 11:05:20;;;;;;;;;4.33;3.00;;;;;28.19;32.14;101644.81;5003683;28;45220;-74
2023/07/10 11:07:52;;;;;;;;;3.00;2.00;;;;;28.21;32.25;101642.91;5012277;28;45284;-71
2023/07/10 11:10:36;;;;;;;;;1.00;1.00;;;;;28.25;32.22;101641.00;5014342;28;45337;-73
2023/07/10 11:13:13;;;;;;;;;2.33;0.67;;;;;28.28;31.67;101649.13;5013307;28;45314;-73
2023/07/10 11:15:39;;;;;;;;;2.00;0.67;;;;;28.15;31.45;101623.91;5004824;28;45400;-75
2023/07/10 11:18:04;;;;;;;;;1.67;1.67;;;;;28.23;30.91;101632.78;5011581;28;45531;-73
2023/07/10 11:20:30;;;;;;;;;0.00;0.00;;;;;28.25;31.68;101610.75;5028536;28;46631;-74
2023/07/10 11:22:59;;;;;;;;;5.00;2.00;;;;;28.34;31.45;101620.53;5011066;28;45501;-75
2023/07/10 11:25:38;;;;;;;;;2.00;1.00;;;;;28.37;30.35;101618.56;5001499;28;45574;-75
2023/07/10 11:28:18;;;;;;;;;1.00;1.00;;;;;28.32;29.81;101617.84;5009337;28;45481;-75
2023/07/10 11:30:44;;;;;;;;;1.33;1.00;;;;;28.43;29.41;101625.72;5005614;28;46912;-72
2023/07/10 11:33:19;;;;;;;;;2.00;1.00;;;;;28.36;30.20;101613.13;5020075;28;45601;-73